Saturday, March 28, 2015, 2:45 PM EDT

KLKU, Louisa, Louisa County Airport/freeman Field

Location: Louisa, VA, United States Lat: 38.01
Local Time: 2:45 PM EDT (18:45 GMT) Lon: -77.97
Time Zone: US/Eastern Elev: 492 ft

Show me the last for .
Show Decoded

2015-03-28 14:35 METAR KLKU 281835Z AUTO 30018G23KT 10SM SCT070 04/M12 A3001 RMK AO2 =
2015-03-28 14:15 METAR KLKU 281815Z AUTO 31015G20KT 10SM SCT070 03/M13 A3001 RMK AO2 =
2015-03-28 13:55 METAR KLKU 281755Z AUTO 29016G20KT 10SM SCT070 04/M12 A3001 RMK AO2 =
2015-03-28 13:35 METAR KLKU 281735Z AUTO 30014G20KT 10SM SCT070 03/M12 A3001 RMK AO2 =
2015-03-28 13:15 METAR KLKU 281715Z AUTO 30016KT 10SM SCT070 04/M12 A3001 RMK AO2 =
2015-03-28 12:55 METAR KLKU 281655Z AUTO 32014G21KT 10SM CLR 03/M12 A3001 RMK AO2 =
2015-03-28 12:35 METAR KLKU 281635Z AUTO 31013G21KT 10SM CLR 03/M12 A3001 RMK AO2 =
2015-03-28 12:15 METAR KLKU 281615Z AUTO 31012G24KT 10SM CLR 02/M12 A3001 RMK AO2 =
2015-03-28 11:55 METAR KLKU 281555Z AUTO 33012G21KT 10SM SCT060 02/M12 A3001 RMK AO2 =
2015-03-28 11:35 METAR KLKU 281535Z AUTO 32013G21KT 10SM SCT060 SCT080 03/M11 A3001 RMK AO2 =
2015-03-28 11:15 METAR KLKU 281515Z AUTO 31016G21KT 10SM OVC080 02/M12 A3001 RMK AO2 =
2015-03-28 10:55 METAR KLKU 281455Z AUTO 34010G20KT 10SM OVC080 01/M12 A3000 RMK AO2 =
2015-03-28 10:35 METAR KLKU 281435Z AUTO 33010G16KT 290V010 10SM OVC080 02/M11 A3000 RMK AO2 =
2015-03-28 10:15 METAR KLKU 281415Z AUTO 29012G20KT 10SM OVC080 01/M11 A3000 RMK AO2 =
2015-03-28 09:55 METAR KLKU 281355Z AUTO 32011G19KT 10SM BKN065 OVC080 01/M12 A3000 RMK AO2 =
2015-03-28 09:35 METAR KLKU 281335Z AUTO 35009KT 10SM SCT055 OVC075 01/M09 A2999 RMK AO2 =
2015-03-28 09:15 METAR KLKU 281315Z AUTO 32011G14KT 10SM SCT050 BKN055 OVC075 00/M09 A2999 RMK
                 AO2 =
2015-03-28 08:55 METAR KLKU 281255Z AUTO 35007KT 310V020 10SM SCT044 OVC050 00/M08 A2999 RMK AO2
                 =
2015-03-28 08:35 METAR KLKU 281235Z AUTO 34008G14KT 10SM SCT036 BKN046 OVC050 M01/M08 A2999 RMK
                 AO2 =
2015-03-28 08:15 METAR KLKU 281215Z AUTO 34013G17KT 10SM SCT043 BKN050 OVC070 M01/M08 A2998 RMK
                 AO2 =
2015-03-28 07:55 METAR KLKU 281155Z AUTO 01010G16KT 10SM SCT060 OVC070 M01/M08 A2996 RMK AO2 =
2015-03-28 07:35 METAR KLKU 281135Z AUTO 01008G14KT 340V040 10SM OVC070 00/M07 A2995 RMK AO2 =
2015-03-28 07:15 METAR KLKU 281115Z AUTO 35009KT 10SM OVC060 01/M08 A2993 RMK AO2 =
2015-03-28 06:55 METAR KLKU 281055Z AUTO 35006KT 10SM SCT050 OVC060 01/M07 A2992 RMK AO2 =
2015-03-28 06:35 METAR KLKU 281035Z AUTO 33004KT 10SM OVC060 01/M07 A2992 RMK AO2 =
2015-03-28 06:15 METAR KLKU 281015Z AUTO 34005KT 10SM SCT045 SCT050 OVC060 01/M07 A2990 RMK AO2 =
2015-03-28 05:55 METAR KLKU 280955Z AUTO 01006KT 10SM SCT043 OVC060 01/M06 A2989 RMK AO2 =
2015-03-28 05:35 METAR KLKU 280935Z AUTO 01004KT 10SM OVC060 01/M06 A2988 RMK AO2 =
2015-03-28 05:15 METAR KLKU 280915Z AUTO 01005KT 10SM BKN060 OVC075 01/M06 A2987 RMK AO2 =
2015-03-28 04:55 METAR KLKU 280855Z AUTO 02006KT 10SM OVC070 01/M05 A2987 RMK AO2 =
2015-03-28 04:35 METAR KLKU 280835Z AUTO 02006KT 10SM SCT060 SCT070 OVC110 02/M05 A2986 RMK AO2 =
2015-03-28 04:15 METAR KLKU 280815Z AUTO 01006KT 10SM BKN060 OVC095 02/M05 A2985 RMK AO2 =
2015-03-28 03:35 METAR KLKU 280735Z AUTO 36010G16KT 330V030 10SM BKN047 OVC060 03/M04 A2985 RMK
                 AO2 =
2015-03-28 03:15 METAR KLKU 280715Z AUTO 01005KT 10SM OVC043 03/M03 A2985 RMK AO2 =
2015-03-28 02:35 METAR KLKU 280635Z AUTO 36008G16KT 10SM OVC043 04/M03 A2984 RMK AO2 =
2015-03-28 02:15 METAR KLKU 280615Z AUTO 01009G15KT 330V030 10SM OVC045 04/M03 A2985 RMK AO2 =
2015-03-28 01:55 METAR KLKU 280555Z AUTO 02009KT 10SM SCT047 OVC070 04/M03 A2984 RMK AO2 =
2015-03-28 01:35 METAR KLKU 280535Z AUTO 01007KT 350V050 10SM OVC070 04/M02 A2983 RMK AO2 =
2015-03-28 01:15 METAR KLKU 280515Z AUTO 01006KT 10SM OVC060 05/M02 A2982 RMK AO2 =
2015-03-28 00:35 METAR KLKU 280435Z AUTO 01009KT 10SM OVC070 05/M03 A2982 RMK AO2 =
2015-03-28 00:15 METAR KLKU 280415Z AUTO 36007KT 10SM OVC060 06/M02 A2982 RMK AO2 =
2015-03-27 23:55 METAR KLKU 280355Z AUTO 36008KT 10SM OVC060 06/M02 A2982 RMK AO2 =
2015-03-27 23:35 METAR KLKU 280335Z AUTO 01005KT 10SM OVC060 06/M02 A2982 RMK AO2 =
2015-03-27 23:15 METAR KLKU 280315Z AUTO 02007KT 10SM OVC060 06/M02 A2981 RMK AO2 =
2015-03-27 22:55 METAR KLKU 280255Z AUTO 01005G08KT 10SM OVC060 07/M02 A2981 RMK AO2 =
2015-03-27 22:35 METAR KLKU 280235Z AUTO 02007KT 10SM OVC060 07/M02 A2981 RMK AO2 =
2015-03-27 22:15 METAR KLKU 280215Z AUTO 01006KT 10SM OVC060 07/M01 A2980 RMK AO2 =
2015-03-27 21:55 METAR KLKU 280155Z AUTO 02008KT 10SM OVC060 07/M01 A2979 RMK AO2 =
2015-03-27 21:35 METAR KLKU 280135Z AUTO 04008KT 10SM OVC060 06/03 A2980 RMK AO2 =
2015-03-27 21:15 METAR KLKU 280115Z AUTO 00000KT 10SM OVC060 06/03 A2981 RMK AO2 =
2015-03-27 20:55 METAR KLKU 280055Z AUTO 00000KT 10SM OVC060 04/03 A2980 RMK AO2 =
2015-03-27 20:35 METAR KLKU 280035Z AUTO 00000KT 10SM SCT050 BKN070 OVC110 04/03 A2979 RMK AO2 =
2015-03-27 20:15 METAR KLKU 280015Z AUTO 00000KT 10SM BKN070 OVC110 05/03 A2977 RMK AO2 =
2015-03-27 19:55 METAR KLKU 272355Z AUTO 00000KT 10SM SCT090 OVC110 06/04 A2977 RMK AO2 =
2015-03-27 19:35 METAR KLKU 272335Z AUTO 00000KT 10SM BKN100 06/04 A2977 RMK AO2 =
2015-03-27 19:15 METAR KLKU 272315Z AUTO 00000KT 10SM BKN110 08/02 A2977 RMK AO2 =
2015-03-27 18:55 METAR KLKU 272255Z AUTO 00000KT 10SM OVC095 08/02 A2977 RMK AO2 =
2015-03-27 18:35 METAR KLKU 272235Z AUTO 07004KT 10SM OVC095 08/01 A2976 RMK AO2 =
2015-03-27 18:15 METAR KLKU 272215Z AUTO 04005KT 10SM OVC095 09/01 A2976 RMK AO2 =
2015-03-27 17:55 METAR KLKU 272155Z AUTO 02003KT 10SM BKN095 09/02 A2974 RMK AO2 =
2015-03-27 17:35 METAR KLKU 272135Z AUTO 34004KT 10SM OVC095 09/01 A2974 RMK AO2 =
2015-03-27 17:15 METAR KLKU 272115Z AUTO 36006KT 10SM BKN095 09/02 A2974 RMK AO2 =
2015-03-27 16:55 METAR KLKU 272055Z AUTO 01004KT 10SM SCT095 09/02 A2975 RMK AO2 =
2015-03-27 16:35 METAR KLKU 272035Z AUTO 36005KT 10SM BKN095 08/01 A2975 RMK AO2 =
2015-03-27 16:15 METAR KLKU 272015Z AUTO 36003KT 10SM SCT024 SCT037 OVC085 08/03 A2975 RMK AO2 =
2015-03-27 15:55 METAR KLKU 271955Z AUTO 35005KT 10SM SCT024 SCT030 OVC085 08/03 A2974 RMK AO2 =
2015-03-27 15:35 METAR KLKU 271935Z AUTO 36004KT 10SM SCT024 BKN032 OVC085 08/03 A2975 RMK AO2 =
2015-03-27 15:15 METAR KLKU 271915Z AUTO 05007KT 10SM BKN024 BKN028 07/03 A2976 RMK AO2 =
2015-03-27 14:55 METAR KLKU 271855Z AUTO 03004KT 10SM SCT017 SCT024 BKN100 07/03 A2977 RMK AO2 =

Support USWX by starting your Amazon purchase here.